Time;durP1;ratioP1;P1;durP2;ratioP2;P2;SDS_P1;SDS_P2;PMS_P1;PMS_P2;Temp;Humidity;BMP_temperature;BMP_pressure;BME280_temperature;BME280_humidity;BME280_pressure;Samples;Min_cycle;Max_cycle;Signal;HPM_P1;HPM_P2
2023/04/11 00:00:27;;;;;;;7.97;1.58;;;;;;;;;;5033671;27;92585;-85
2023/04/11 00:02:58;;;;;;;7.45;1.70;;;;;;;;;;5038884;28;95379;-84
2023/04/11 00:05:31;;;;;;;6.07;1.40;;;;;;;;;;5040478;27;92117;-84
2023/04/11 00:07:57;;;;;;;7.90;1.55;;;;;;;;;;5038958;28;95526;-83
2023/04/11 00:10:24;;;;;;;7.20;1.63;;;;;;;;;;5037156;27;92843;-84
2023/04/11 00:12:55;;;;;;;6.28;1.40;;;;;;;;;;5034158;27;91390;-84
2023/04/11 00:15:22;;;;;;;6.60;1.60;;;;;;;;;;5039286;27;92048;-85
2023/04/11 00:17:49;;;;;;;7.88;1.50;;;;;;;;;;5045415;27;93218;-84
2023/04/11 00:20:16;;;;;;;5.75;1.48;;;;;;;;;;5040101;27;94982;-84
2023/04/11 00:22:42;;;;;;;7.57;1.52;;;;;;;;;;5060382;27;92703;-84
2023/04/11 00:25:09;;;;;;;6.60;1.70;;;;;;;;;;5060093;27;92316;-84
2023/04/11 00:27:36;;;;;;;7.00;1.77;;;;;;;;;;5042298;27;94652;-84
2023/04/11 00:30:04;;;;;;;8.10;1.73;;;;;;;;;;5059442;27;93116;-83
2023/04/11 00:32:30;;;;;;;9.45;2.05;;;;;;;;;;5039703;27;92490;-85
2023/04/11 00:34:57;;;;;;;8.10;1.92;;;;;;;;;;5038357;28;95123;-84
2023/04/11 00:37:24;;;;;;;8.73;1.70;;;;;;;;;;5055844;27;91388;-84
2023/04/11 00:39:54;;;;;;;9.38;1.73;;;;;;;;;;5024513;28;92160;-85
2023/04/11 00:42:21;;;;;;;8.18;1.65;;;;;;;;;;5040158;27;93879;-85
2023/04/11 00:44:47;;;;;;;7.80;1.65;;;;;;;;;;5040034;27;94487;-84
2023/04/11 00:47:14;;;;;;;8.80;1.73;;;;;;;;;;5059987;27;95299;-84
2023/04/11 00:49:40;;;;;;;7.50;1.80;;;;;;;;;;5038134;28;92755;-84
2023/04/11 00:52:07;;;;;;;11.00;1.83;;;;;;;;;;5056473;27;93294;-84
2023/04/11 00:54:34;;;;;;;8.50;1.85;;;;;;;;;;5060035;27;92188;-84
2023/04/11 00:57:01;;;;;;;8.98;1.67;;;;;;;;;;5040959;27;93938;-84
2023/04/11 00:59:28;;;;;;;10.02;1.80;;;;;;;;;;5063121;27;92024;-84
2023/04/11 01:01:55;;;;;;;9.05;1.90;;;;;;;;;;5044013;27;92006;-84
2023/04/11 01:04:22;;;;;;;9.27;1.92;;;;;;;;;;5044855;27;92648;-84
2023/04/11 01:06:54;;;;;;;10.23;2.10;;;;;;;;;;5063360;27;92686;-82
2023/04/11 01:09:23;;;;;;;13.07;2.25;;;;;;;;;;5042723;27;98162;-83
2023/04/11 01:11:50;;;;;;;9.18;2.00;;;;;;;;;;5064023;27;92554;-84
2023/04/11 01:14:17;;;;;;;10.55;1.85;;;;;;;;;;5062461;27;92401;-84
2023/04/11 01:16:46;;;;;;;7.93;1.85;;;;;;;;;;5062406;27;92712;-83
2023/04/11 01:19:19;;;;;;;10.75;2.13;;;;;;;;;;5062578;27;92109;-83
2023/04/11 01:21:47;;;;;;;8.68;1.70;;;;;;;;;;5050626;27;95244;-83
2023/04/11 01:24:13;;;;;;;10.52;1.63;;;;;;;;;;5061696;27;92077;-82
2023/04/11 01:26:40;;;;;;;11.27;2.08;;;;;;;;;;5044817;27;94470;-82
2023/04/11 01:29:07;;;;;;;8.32;1.77;;;;;;;;;;5044574;27;92511;-82
2023/04/11 01:31:34;;;;;;;10.30;2.00;;;;;;;;;;5044243;27;92252;-83
2023/04/11 01:34:01;;;;;;;9.15;1.77;;;;;;;;;;5061393;27;94789;-82
2023/04/11 01:36:28;;;;;;;11.35;1.85;;;;;;;;;;5043927;27;97187;-82
2023/04/11 01:38:55;;;;;;;9.65;2.17;;;;;;;;;;5044428;27;92654;-83
2023/04/11 01:41:23;;;;;;;8.18;1.50;;;;;;;;;;5063025;27;92413;-83
2023/04/11 01:43:50;;;;;;;9.85;1.75;;;;;;;;;;5047126;27;95837;-83
2023/04/11 01:46:17;;;;;;;15.75;2.03;;;;;;;;;;5062298;27;92695;-84
2023/04/11 01:48:46;;;;;;;13.38;2.08;;;;;;;;;;5062188;27;92826;-83
2023/04/11 01:51:13;;;;;;;8.45;1.63;;;;;;;;;;5044759;27;92679;-83
2023/04/11 01:53:44;;;;;;;13.77;2.20;;;;;;;;;;5044325;27;94454;-83
2023/04/11 01:56:11;;;;;;;15.30;2.20;;;;;;;;;;5061831;27;92731;-83
2023/04/11 01:58:38;;;;;;;14.95;2.50;;;;;;;;;;5060994;27;95229;-83
2023/04/11 02:01:04;;;;;;;15.90;2.47;;;;;;;;;;5044119;27;97197;-82
2023/04/11 02:03:31;;;;;;;10.77;1.80;;;;;;;;;;5062392;27;93198;-83
2023/04/11 02:05:59;;;;;;;11.00;2.08;;;;;;;;;;5047032;27;92461;-82
2023/04/11 02:08:25;;;;;;;11.00;1.80;;;;;;;;;;5061609;27;94863;-83
2023/04/11 02:10:54;;;;;;;12.88;2.13;;;;;;;;;;5027070;27;92700;-83
2023/04/11 02:13:20;;;;;;;11.13;2.00;;;;;;;;;;5026343;27;95249;-84
2023/04/11 02:15:47;;;;;;;9.52;1.80;;;;;;;;;;5044369;27;92480;-83
2023/04/11 02:18:13;;;;;;;9.38;1.75;;;;;;;;;;5026284;27;92209;-83
2023/04/11 02:20:40;;;;;;;10.35;1.95;;;;;;;;;;5043194;27;94694;-83
2023/04/11 02:23:06;;;;;;;9.43;2.00;;;;;;;;;;5060339;27;94671;-83
2023/04/11 02:25:33;;;;;;;9.77;1.83;;;;;;;;;;5043497;27;92298;-83
2023/04/11 02:27:59;;;;;;;9.00;1.73;;;;;;;;;;5046916;27;92600;-83
2023/04/11 02:30:26;;;;;;;10.85;1.95;;;;;;;;;;5044801;27;92799;-83
2023/04/11 02:32:52;;;;;;;8.82;1.80;;;;;;;;;;5043441;27;95209;-83
2023/04/11 02:35:19;;;;;;;9.40;1.80;;;;;;;;;;5061682;27;93164;-83
2023/04/11 02:37:45;;;;;;;10.63;1.88;;;;;;;;;;5025888;27;92352;-83
2023/04/11 02:40:12;;;;;;;6.40;1.52;;;;;;;;;;5042521;27;94204;-82
2023/04/11 02:42:41;;;;;;;7.72;1.63;;;;;;;;;;5060652;27;93759;-82
2023/04/11 02:45:09;;;;;;;7.72;1.60;;;;;;;;;;5042760;27;92811;-83
2023/04/11 02:47:36;;;;;;;7.95;1.70;;;;;;;;;;5041779;27;95515;-83
2023/04/11 02:50:05;;;;;;;8.70;1.50;;;;;;;;;;5044765;27;95563;-83
2023/04/11 02:52:38;;;;;;;7.68;1.40;;;;;;;;;;5043167;27;94761;-84
2023/04/11 02:55:05;;;;;;;9.25;1.85;;;;;;;;;;5061043;27;93124;-83
2023/04/11 02:57:31;;;;;;;10.52;1.63;;;;;;;;;;5040167;27;92606;-83
2023/04/11 02:59:58;;;;;;;9.25;1.73;;;;;;;;;;5022941;28;94457;-83
2023/04/11 03:02:34;;;;;;;7.22;1.60;;;;;;;;;;5023347;28;98481;-84
2023/04/11 03:05:04;;;;;;;7.95;1.45;;;;;;;;;;5040997;28;97296;-83
2023/04/11 03:07:33;;;;;;;9.13;1.73;;;;;;;;;;5038866;28;93576;-83
2023/04/11 03:10:00;;;;;;;7.63;1.50;;;;;;;;;;5043639;27;95557;-83
2023/04/11 03:12:26;;;;;;;7.32;1.30;;;;;;;;;;5041023;27;99300;-83
2023/04/11 03:14:59;;;;;;;8.43;1.40;;;;;;;;;;5045556;27;92296;-83
2023/04/11 03:17:25;;;;;;;9.07;1.38;;;;;;;;;;5039669;27;93182;-83
2023/04/11 03:19:52;;;;;;;6.93;1.48;;;;;;;;;;5045860;27;95440;-82
2023/04/11 03:22:19;;;;;;;11.85;1.60;;;;;;;;;;5040441;27;94996;-82
2023/04/11 03:24:48;;;;;;;;;;;;;;;;;;5022434;28;92216;-82
2023/04/11 03:27:17;;;;;;;6.57;1.17;;;;;;;;;;5024056;28;94780;-83
2023/04/11 03:29:47;;;;;;;7.10;1.33;;;;;;;;;;5022556;28;92106;-83
2023/04/11 03:32:23;;;;;;;5.78;1.30;;;;;;;;;;5058783;27;92796;-83
2023/04/11 03:34:49;;;;;;;8.25;1.48;;;;;;;;;;5039714;27;92469;-83
2023/04/11 03:37:16;;;;;;;7.50;1.40;;;;;;;;;;5038889;27;94442;-83
2023/04/11 03:39:43;;;;;;;6.22;1.50;;;;;;;;;;5022152;28;96360;-83
2023/04/11 03:42:11;;;;;;;6.80;1.25;;;;;;;;;;5021055;27;92387;-83
2023/04/11 03:44:38;;;;;;;11.65;1.52;;;;;;;;;;5023530;28;92278;-82
2023/04/11 03:47:05;;;;;;;8.00;1.25;;;;;;;;;;5041451;27;95308;-82
2023/04/11 03:49:39;;;;;;;4.43;1.25;;;;;;;;;;5021937;28;94074;-84
2023/04/11 03:52:08;;;;;;;12.68;1.73;;;;;;;;;;5054484;27;92190;-84
2023/04/11 03:54:36;;;;;;;7.68;1.20;;;;;;;;;;5045629;27;92631;-85
2023/04/11 03:57:04;;;;;;;9.35;1.38;;;;;;;;;;5041961;27;92105;-84
2023/04/11 03:59:33;;;;;;;9.35;1.45;;;;;;;;;;5041953;27;94377;-84
2023/04/11 04:02:04;;;;;;;6.32;1.30;;;;;;;;;;5036026;27;95807;-84
2023/04/11 04:04:33;;;;;;;7.50;1.33;;;;;;;;;;5038318;28;92389;-84
2023/04/11 04:07:10;;;;;;;6.75;1.40;;;;;;;;;;5041091;27;93299;-83
2023/04/11 04:09:40;;;;;;;6.68;1.25;;;;;;;;;;5041662;27;95527;-83
2023/04/11 04:12:07;;;;;;;7.35;1.20;;;;;;;;;;5043346;27;92356;-84
2023/04/11 04:14:54;;;;;;;5.53;1.10;;;;;;;;;;5045339;27;93039;-84
2023/04/11 04:17:21;;;;;;;6.78;1.20;;;;;;;;;;5041571;28;95336;-82
2023/04/11 04:19:48;;;;;;;6.50;1.23;;;;;;;;;;5038369;28;93241;-84
2023/04/11 04:22:16;;;;;;;6.40;1.20;;;;;;;;;;5049495;27;92412;-85
2023/04/11 04:24:50;;;;;;;6.75;1.15;;;;;;;;;;5039650;27;92615;-84
2023/04/11 04:27:23;;;;;;;6.72;1.27;;;;;;;;;;5039291;27;95225;-84
2023/04/11 04:29:51;;;;;;;9.27;1.23;;;;;;;;;;5024317;27;92733;-84
2023/04/11 04:32:33;;;;;;;6.20;1.17;;;;;;;;;;5036853;27;93396;-85
2023/04/11 04:35:07;;;;;;;7.22;1.17;;;;;;;;;;5040918;27;92388;-85
2023/04/11 04:37:38;;;;;;;7.13;1.20;;;;;;;;;;5044268;27;95936;-85
2023/04/11 04:40:20;;;;;;;6.35;1.30;;;;;;;;;;5046467;27;92338;-85
2023/04/11 04:42:57;;;;;;;6.88;1.30;;;;;;;;;;5043666;27;95017;-85
2023/04/11 04:45:44;;;;;;;4.30;1.25;;;;;;;;;;5010391;27;91360;-84
2023/04/11 04:48:16;;;;;;;6.75;1.08;;;;;;;;;;5040095;27;94050;-83
2023/04/11 04:50:44;;;;;;;6.78;1.30;;;;;;;;;;5045859;27;93254;-82
2023/04/11 04:53:11;;;;;;;4.25;0.90;;;;;;;;;;5043768;27;94921;-83
2023/04/11 04:55:45;;;;;;;6.18;1.10;;;;;;;;;;5045068;27;95096;-83
2023/04/11 04:58:11;;;;;;;7.05;1.20;;;;;;;;;;5024541;27;94783;-83
2023/04/11 05:00:39;;;;;;;6.80;1.10;;;;;;;;;;5045046;27;92700;-83
2023/04/11 05:03:15;;;;;;;7.35;1.55;;;;;;;;;;5048117;27;93599;-83
2023/04/11 05:05:42;;;;;;;6.25;1.15;;;;;;;;;;5044642;27;92067;-83
2023/04/11 05:08:12;;;;;;;6.13;1.15;;;;;;;;;;5043335;27;94937;-82
2023/04/11 05:10:39;;;;;;;8.30;1.17;;;;;;;;;;5047074;27;94314;-83
2023/04/11 05:13:08;;;;;;;3.92;1.02;;;;;;;;;;5044528;27;92499;-83
2023/04/11 05:15:35;;;;;;;6.32;1.13;;;;;;;;;;5044343;27;94525;-83
2023/04/11 05:18:02;;;;;;;6.72;1.02;;;;;;;;;;5039018;27;96582;-83
2023/04/11 05:20:32;;;;;;;7.32;1.20;;;;;;;;;;5043549;27;92967;-83
2023/04/11 05:22:59;;;;;;;5.18;1.23;;;;;;;;;;5043446;27;95122;-84
2023/04/11 05:25:26;;;;;;;5.35;1.15;;;;;;;;;;5042131;27;92394;-84
2023/04/11 05:27:53;;;;;;;6.30;1.30;;;;;;;;;;5043481;27;95629;-84
2023/04/11 05:30:22;;;;;;;5.40;1.08;;;;;;;;;;5041694;27;93569;-84
2023/04/11 05:32:49;;;;;;;6.78;1.35;;;;;;;;;;5054380;27;92808;-84
2023/04/11 05:35:16;;;;;;;12.93;1.55;;;;;;;;;;5054163;27;94010;-80
2023/04/11 05:37:46;;;;;;;8.27;1.15;;;;;;;;;;5027566;28;94746;-81
2023/04/11 05:40:13;;;;;;;6.07;1.40;;;;;;;;;;5057496;27;92263;-81
2023/04/11 05:42:40;;;;;;;10.15;1.30;;;;;;;;;;5041407;27;94957;-80
2023/04/11 05:45:06;;;;;;;10.85;1.50;;;;;;;;;;5064623;27;92593;-80
2023/04/11 05:47:33;;;;;;;7.78;1.42;;;;;;;;;;5042433;27;92480;-81
2023/04/11 05:50:00;;;;;;;9.15;1.30;;;;;;;;;;5026467;27;95580;-80
2023/04/11 05:52:26;;;;;;;9.38;1.20;;;;;;;;;;5038976;27;93748;-80
2023/04/11 05:54:53;;;;;;;6.80;1.20;;;;;;;;;;5041614;27;92946;-80
2023/04/11 05:57:19;;;;;;;7.82;1.50;;;;;;;;;;5056726;27;92912;-79
2023/04/11 05:59:48;;;;;;;7.38;1.20;;;;;;;;;;5042176;27;91929;-81
2023/04/11 06:02:16;;;;;;;8.35;1.38;;;;;;;;;;5042075;27;92183;-81
2023/04/11 06:04:43;;;;;;;10.30;1.73;;;;;;;;;;5023243;28;93387;-83
2023/04/11 06:07:10;;;;;;;6.10;1.30;;;;;;;;;;5024716;28;94631;-84
2023/04/11 06:09:38;;;;;;;6.45;1.10;;;;;;;;;;5041711;27;93216;-84
2023/04/11 06:12:04;;;;;;;8.52;1.38;;;;;;;;;;5042010;27;92340;-81
2023/04/11 06:14:31;;;;;;;7.68;1.33;;;;;;;;;;5043722;27;92831;-80
2023/04/11 06:16:58;;;;;;;9.40;1.20;;;;;;;;;;5042896;27;92550;-80
2023/04/11 06:19:24;;;;;;;11.35;1.30;;;;;;;;;;5049290;27;92355;-80
2023/04/11 06:21:51;;;;;;;8.75;1.20;;;;;;;;;;5042952;27;95669;-80
2023/04/11 06:24:32;;;;;;;10.10;1.50;;;;;;;;;;5060958;27;91863;-80
2023/04/11 06:26:59;;;;;;;9.10;1.33;;;;;;;;;;5062980;27;92023;-79
2023/04/11 06:29:25;;;;;;;6.82;1.20;;;;;;;;;;5064078;27;92382;-79
2023/04/11 06:31:52;;;;;;;10.18;1.48;;;;;;;;;;5041415;27;95070;-80
2023/04/11 06:34:18;;;;;;;6.28;1.30;;;;;;;;;;5041308;27;95262;-79
2023/04/11 06:36:47;;;;;;;9.98;1.50;;;;;;;;;;5042178;27;94517;-78
2023/04/11 06:39:13;;;;;;;9.63;1.48;;;;;;;;;;5060511;27;92619;-80
2023/04/11 06:41:39;;;;;;;7.32;1.20;;;;;;;;;;5060043;27;92773;-77
2023/04/11 06:44:06;;;;;;;4.90;1.20;;;;;;;;;;5059090;27;93114;-77
2023/04/11 06:46:32;;;;;;;7.88;1.58;;;;;;;;;;5060660;27;92081;-76
2023/04/11 06:48:59;;;;;;;6.72;1.23;;;;;;;;;;5053085;27;92504;-77
2023/04/11 06:51:25;;;;;;;5.82;0.95;;;;;;;;;;5041289;27;92539;-77
2023/04/11 06:53:52;;;;;;;6.80;1.23;;;;;;;;;;5039848;27;92434;-76
2023/04/11 06:56:19;;;;;;;7.30;1.23;;;;;;;;;;5036715;27;95030;-76
2023/04/11 06:58:46;;;;;;;5.70;1.08;;;;;;;;;;5055019;27;93065;-76
2023/04/11 07:01:15;;;;;;;6.07;1.20;;;;;;;;;;5041037;27;94572;-77
2023/04/11 07:03:42;;;;;;;26.95;2.10;;;;;;;;;;5041684;27;93514;-76
2023/04/11 07:06:09;;;;;;;11.00;1.75;;;;;;;;;;5059072;27;92376;-76
2023/04/11 07:08:36;;;;;;;10.95;1.63;;;;;;;;;;5022142;28;92575;-76
2023/04/11 07:11:03;;;;;;;8.50;1.20;;;;;;;;;;5014842;28;93774;-77
2023/04/11 07:13:30;;;;;;;7.07;1.30;;;;;;;;;;5022546;28;91393;-77
2023/04/11 07:15:57;;;;;;;;;;;;;;;;;;5020255;28;93415;-77
2023/04/11 07:18:24;;;;;;;14.20;1.30;;;;;;;;;;5018901;28;106259;-77
2023/04/11 07:20:51;;;;;;;5.78;1.10;;;;;;;;;;5018413;28;94925;-77
2023/04/11 07:23:18;;;;;;;5.50;1.10;;;;;;;;;;5019313;28;92850;-78
2023/04/11 07:25:46;;;;;;;5.32;0.85;;;;;;;;;;5019620;28;92013;-78
2023/04/11 07:28:12;;;;;;;4.82;1.15;;;;;;;;;;5019021;28;92358;-77
2023/04/11 07:30:39;;;;;;;3.20;0.93;;;;;;;;;;5017941;28;92968;-77
2023/04/11 07:33:06;;;;;;;4.20;1.15;;;;;;;;;;5013687;28;92400;-77
2023/04/11 07:35:33;;;;;;;4.32;1.20;;;;;;;;;;4999580;28;93423;-77
2023/04/11 07:38:00;;;;;;;7.05;1.35;;;;;;;;;;5014717;28;91440;-77
2023/04/11 07:40:27;;;;;;;6.68;1.10;;;;;;;;;;4999613;28;95288;-76
2023/04/11 07:42:53;;;;;;;3.33;0.80;;;;;;;;;;4990617;28;92900;-78
2023/04/11 07:45:20;;;;;;;4.40;0.98;;;;;;;;;;5016521;28;94532;-77
2023/04/11 07:47:47;;;;;;;4.20;1.00;;;;;;;;;;5019546;28;95417;-77
2023/04/11 07:50:13;;;;;;;2.45;0.70;;;;;;;;;;4999636;28;93721;-77
2023/04/11 07:52:40;;;;;;;4.20;1.00;;;;;;;;;;4998794;28;93509;-77
2023/04/11 07:55:07;;;;;;;4.28;1.00;;;;;;;;;;4982698;28;93360;-77
2023/04/11 07:57:33;;;;;;;4.82;1.00;;;;;;;;;;4979221;28;92444;-78
2023/04/11 08:00:00;;;;;;;4.43;1.08;;;;;;;;;;4982960;28;92773;-78
2023/04/11 08:02:26;;;;;;;4.47;0.95;;;;;;;;;;5002524;28;96303;-77
2023/04/11 08:04:53;;;;;;;4.47;1.00;;;;;;;;;;5010735;28;92266;-77
2023/04/11 08:07:19;;;;;;;2.33;0.80;;;;;;;;;;4984034;28;94881;-78
2023/04/11 08:09:46;;;;;;;4.28;0.90;;;;;;;;;;5029398;27;94696;-77
2023/04/11 08:12:12;;;;;;;2.85;0.80;;;;;;;;;;5039827;27;92504;-78
2023/04/11 08:14:39;;;;;;;5.57;1.20;;;;;;;;;;5039165;27;93494;-76
2023/04/11 08:17:06;;;;;;;3.47;0.90;;;;;;;;;;5041160;27;93448;-78
2023/04/11 08:19:50;;;;;;;3.90;1.00;;;;;;;;;;5034151;27;92282;-77
2023/04/11 08:22:17;;;;;;;3.08;0.85;;;;;;;;;;5020400;27;95309;-78
2023/04/11 08:24:43;;;;;;;5.00;0.98;;;;;;;;;;5038991;27;92050;-77
2023/04/11 08:27:10;;;;;;;2.67;0.80;;;;;;;;;;5035055;27;92728;-77
2023/04/11 08:29:36;;;;;;;5.93;1.00;;;;;;;;;;5021500;28;94607;-77
2023/04/11 08:32:03;;;;;;;2.10;0.90;;;;;;;;;;5037640;27;92536;-77
2023/04/11 08:34:33;;;;;;;3.97;0.98;;;;;;;;;;5050511;27;95004;-77
2023/04/11 08:36:59;;;;;;;4.28;0.85;;;;;;;;;;5058440;27;93368;-77
2023/04/11 08:39:26;;;;;;;4.45;0.85;;;;;;;;;;5060947;27;94419;-77
2023/04/11 08:41:52;;;;;;;2.67;0.70;;;;;;;;;;5027312;27;93212;-77
2023/04/11 08:44:19;;;;;;;3.90;0.90;;;;;;;;;;5056963;27;92710;-77
2023/04/11 08:46:46;;;;;;;3.75;0.93;;;;;;;;;;5057105;27;94131;-77
2023/04/11 08:49:12;;;;;;;3.53;0.88;;;;;;;;;;5040400;27;92536;-77
2023/04/11 08:51:41;;;;;;;6.32;1.00;;;;;;;;;;5059316;27;92160;-78
2023/04/11 08:54:07;;;;;;;5.78;1.00;;;;;;;;;;5057944;27;92314;-77
2023/04/11 08:56:34;;;;;;;3.60;0.90;;;;;;;;;;5039280;27;92748;-76
2023/04/11 08:59:01;;;;;;;4.93;1.00;;;;;;;;;;5056746;27;94549;-78
2023/04/11 09:01:30;;;;;;;1.95;0.70;;;;;;;;;;5061403;27;95249;-77
2023/04/11 09:03:58;;;;;;;4.43;0.80;;;;;;;;;;5058267;27;92104;-78
2023/04/11 09:06:29;;;;;;;3.50;0.90;;;;;;;;;;5039262;27;94703;-77
2023/04/11 09:08:57;;;;;;;3.67;0.90;;;;;;;;;;5057673;27;92902;-77
2023/04/11 09:11:24;;;;;;;3.40;0.70;;;;;;;;;;5056007;27;92569;-77
2023/04/11 09:14:09;;;;;;;3.85;0.90;;;;;;;;;;5058450;27;93233;-77
2023/04/11 09:16:36;;;;;;;3.83;0.88;;;;;;;;;;5038139;27;97366;-77
2023/04/11 09:19:02;;;;;;;3.13;0.88;;;;;;;;;;5044657;27;92736;-76
2023/04/11 09:21:30;;;;;;;4.93;1.00;;;;;;;;;;5014894;28;92720;-77
2023/04/11 09:23:56;;;;;;;;;;;;;;;;;;5040049;27;94700;-77
2023/04/11 09:26:24;;;;;;;2.95;0.73;;;;;;;;;;5041155;27;102694;-76
2023/04/11 09:28:54;;;;;;;3.33;0.70;;;;;;;;;;5036213;28;94641;-76
2023/04/11 09:31:36;;;;;;;4.38;0.90;;;;;;;;;;5018943;28;92907;-76
2023/04/11 09:34:03;;;;;;;2.80;0.77;;;;;;;;;;5024791;27;92364;-76
2023/04/11 09:36:29;;;;;;;3.72;0.80;;;;;;;;;;5041294;27;92745;-76
2023/04/11 09:38:56;;;;;;;1.80;0.70;;;;;;;;;;5043616;27;92534;-76
2023/04/11 09:41:30;;;;;;;3.70;0.80;;;;;;;;;;5043581;27;92655;-76
2023/04/11 09:43:57;;;;;;;4.03;0.88;;;;;;;;;;5046979;27;92722;-77
2023/04/11 09:46:24;;;;;;;2.97;0.70;;;;;;;;;;5040226;27;93502;-77
2023/04/11 09:48:51;;;;;;;4.60;0.80;;;;;;;;;;5042397;27;101965;-77
2023/04/11 09:51:18;;;;;;;5.13;0.80;;;;;;;;;;5041440;27;92386;-77
2023/04/11 09:54:02;;;;;;;4.68;0.82;;;;;;;;;;5002838;28;95458;-78
2023/04/11 09:56:35;;;;;;;3.05;0.65;;;;;;;;;;5034176;27;94227;-77
2023/04/11 09:59:02;;;;;;;2.45;0.68;;;;;;;;;;5062028;27;92344;-77
2023/04/11 10:01:28;;;;;;;2.90;0.70;;;;;;;;;;5061862;27;92423;-77
2023/04/11 10:03:55;;;;;;;3.45;0.60;;;;;;;;;;5061635;27;93191;-77
2023/04/11 10:06:30;;;;;;;3.60;0.80;;;;;;;;;;5046501;27;91876;-77
2023/04/11 10:09:08;;;;;;;1.70;0.70;;;;;;;;;;5061405;27;93938;-77
2023/04/11 10:11:35;;;;;;;4.60;1.00;;;;;;;;;;5062979;27;92698;-76
2023/04/11 10:14:02;;;;;;;2.63;0.80;;;;;;;;;;5059424;27;95102;-77
2023/04/11 10:16:31;;;;;;;1.40;0.70;;;;;;;;;;5061258;27;92832;-77
2023/04/11 10:18:59;;;;;;;2.85;0.80;;;;;;;;;;5061217;27;92269;-78
2023/04/11 10:21:31;;;;;;;2.10;0.70;;;;;;;;;;5042579;27;94903;-77
2023/04/11 10:24:10;;;;;;;2.70;0.70;;;;;;;;;;5060637;27;92783;-76
2023/04/11 10:26:47;;;;;;;1.48;0.60;;;;;;;;;;5066620;27;92250;-77
2023/04/11 10:29:33;;;;;;;2.03;0.60;;;;;;;;;;5049974;27;95441;-78
2023/04/11 10:32:17;;;;;;;1.35;0.57;;;;;;;;;;5052031;27;91581;-77
2023/04/11 10:34:53;;;;;;;2.28;0.90;;;;;;;;;;5045462;27;96476;-78
2023/04/11 10:37:29;;;;;;;1.95;0.70;;;;;;;;;;5060992;27;92671;-77
2023/04/11 10:40:11;;;;;;;2.67;0.70;;;;;;;;;;5058527;27;94848;-76
2023/04/11 10:42:39;;;;;;;2.38;0.73;;;;;;;;;;5023858;28;99445;-76
2023/04/11 10:45:20;;;;;;;4.07;0.95;;;;;;;;;;5054938;27;92361;-76
2023/04/11 10:47:50;;;;;;;3.38;0.80;;;;;;;;;;5045429;27;92268;-76
2023/04/11 10:50:25;;;;;;;2.72;0.70;;;;;;;;;;5039958;27;92448;-76
2023/04/11 10:52:56;;;;;;;3.17;0.73;;;;;;;;;;5041820;27;92681;-76
2023/04/11 10:55:23;;;;;;;0.93;0.50;;;;;;;;;;5032060;27;92847;-76
2023/04/11 10:57:50;;;;;;;;;;;;;;;;;;5022567;28;92004;-76
2023/04/11 11:00:16;;;;;;;2.38;0.60;;;;;;;;;;5026065;27;111059;-76
2023/04/11 11:02:44;;;;;;;2.30;0.75;;;;;;;;;;5039824;27;93134;-76
2023/04/11 11:05:14;;;;;;;4.28;0.90;;;;;;;;;;5065823;27;95202;-76
2023/04/11 11:07:44;;;;;;;3.35;0.82;;;;;;;;;;5042551;27;92647;-76
2023/04/11 11:10:11;;;;;;;3.28;0.80;;;;;;;;;;4998949;27;94389;-76
2023/04/11 11:12:50;;;;;;;3.58;0.90;;;;;;;;;;5020975;28;92978;-76
2023/04/11 11:15:16;;;;;;;4.60;1.13;;;;;;;;;;5064877;27;92544;-76
2023/04/11 11:17:43;;;;;;;3.40;0.80;;;;;;;;;;5060489;27;93388;-76
2023/04/11 11:20:10;;;;;;;;;;;;;;;;;;5040125;27;92233;-76
2023/04/11 11:22:36;;;;;;;4.32;0.75;;;;;;;;;;5038773;27;91895;-76
2023/04/11 11:25:06;;;;;;;2.70;0.80;;;;;;;;;;5033770;27;92981;-76
2023/04/11 11:27:33;;;;;;;5.05;1.00;;;;;;;;;;5038460;27;92440;-76
2023/04/11 11:30:09;;;;;;;3.60;0.88;;;;;;;;;;5035576;27;97024;-77
2023/04/11 11:32:36;;;;;;;7.10;1.20;;;;;;;;;;5044507;27;97484;-77
2023/04/11 11:35:12;;;;;;;6.07;0.90;;;;;;;;;;5037707;27;92701;-77
2023/04/11 11:37:38;;;;;;;3.65;0.88;;;;;;;;;;5038331;27;93158;-77
2023/04/11 11:40:08;;;;;;;5.35;0.95;;;;;;;;;;5034435;27;94841;-75
2023/04/11 11:42:35;;;;;;;4.75;0.93;;;;;;;;;;5021831;28;92456;-76
2023/04/11 11:45:01;;;;;;;;;;;;;;;;;;5027052;28;94592;-75
2023/04/11 11:47:28;;;;;;;4.32;0.90;;;;;;;;;;5039735;27;110336;-77
2023/04/11 11:49:54;;;;;;;5.65;1.00;;;;;;;;;;5037602;27;92034;-76
2023/04/11 11:52:33;;;;;;;4.93;1.00;;;;;;;;;;5037320;27;93944;-77
2023/04/11 11:55:00;;;;;;;3.83;1.10;;;;;;;;;;5033614;27;95881;-77
2023/04/11 11:57:27;;;;;;;3.30;0.65;;;;;;;;;;5034943;27;94265;-76
2023/04/11 11:59:55;;;;;;;4.63;0.90;;;;;;;;;;5055574;27;92622;-77
2023/04/11 12:02:22;;;;;;;5.35;1.00;;;;;;;;;;5045942;27;94607;-76
2023/04/11 12:04:49;;;;;;;4.43;1.00;;;;;;;;;;5052380;27;94353;-78
2023/04/11 12:07:19;;;;;;;3.03;0.80;;;;;;;;;;5057604;27;92446;-78
2023/04/11 12:09:53;;;;;;;2.53;0.80;;;;;;;;;;5033744;27;97525;-77
2023/04/11 12:12:19;;;;;;;2.60;0.77;;;;;;;;;;5055748;27;92319;-77
2023/04/11 12:14:52;;;;;;;3.20;0.95;;;;;;;;;;5054994;27;92759;-77
2023/04/11 12:17:19;;;;;;;3.60;0.88;;;;;;;;;;5035568;27;92468;-77
2023/04/11 12:19:45;;;;;;;3.42;1.00;;;;;;;;;;5058177;27;95402;-75
2023/04/11 12:22:12;;;;;;;4.80;0.98;;;;;;;;;;5047572;27;94278;-76
2023/04/11 12:24:38;;;;;;;5.15;1.02;;;;;;;;;;5049089;27;93842;-76
2023/04/11 12:27:05;;;;;;;3.67;0.90;;;;;;;;;;5054734;27;92751;-77
2023/04/11 12:29:51;;;;;;;4.32;0.90;;;;;;;;;;5056009;27;93678;-76
2023/04/11 12:32:18;;;;;;;2.97;0.77;;;;;;;;;;5031831;27;94643;-77
2023/04/11 12:34:44;;;;;;;4.72;1.10;;;;;;;;;;5028408;27;93368;-77
2023/04/11 12:37:11;;;;;;;8.40;1.05;;;;;;;;;;5040883;27;93270;-77
2023/04/11 12:39:37;;;;;;;6.75;0.90;;;;;;;;;;5030884;27;93633;-78
2023/04/11 12:42:04;;;;;;;5.70;1.00;;;;;;;;;;5033885;27;93289;-77
2023/04/11 12:44:31;;;;;;;5.40;0.98;;;;;;;;;;5028822;27;95880;-78
2023/04/11 12:46:57;;;;;;;4.82;1.00;;;;;;;;;;5038238;27;92650;-77
2023/04/11 12:49:24;;;;;;;5.15;0.82;;;;;;;;;;5052440;27;92471;-77
2023/04/11 12:51:50;;;;;;;7.85;0.93;;;;;;;;;;5052467;27;93331;-77
2023/04/11 12:54:17;;;;;;;3.60;0.90;;;;;;;;;;5033019;27;92833;-78
2023/04/11 12:56:44;;;;;;;5.65;1.00;;;;;;;;;;5053046;27;92780;-77
2023/04/11 12:59:10;;;;;;;5.40;1.00;;;;;;;;;;5054486;27;93005;-78
2023/04/11 13:01:36;;;;;;;4.80;0.90;;;;;;;;;;5056868;27;91934;-78
2023/04/11 13:04:03;;;;;;;4.15;0.80;;;;;;;;;;5056077;27;92966;-78
2023/04/11 13:06:30;;;;;;;5.60;0.90;;;;;;;;;;5035484;27;92579;-77
2023/04/11 13:08:57;;;;;;;;;;;;;;;;;;5031528;27;95556;-77
2023/04/11 13:11:23;;;;;;;7.95;0.90;;;;;;;;;;5056956;27;108207;-77
2023/04/11 13:13:51;;;;;;;3.33;0.77;;;;;;;;;;5051050;27;92562;-76
2023/04/11 13:16:17;;;;;;;4.40;0.90;;;;;;;;;;5056465;27;93314;-76
2023/04/11 13:18:44;;;;;;;2.72;0.80;;;;;;;;;;5042915;27;92671;-76
2023/04/11 13:21:11;;;;;;;3.47;0.93;;;;;;;;;;5035837;27;92248;-76
2023/04/11 13:23:37;;;;;;;3.55;0.77;;;;;;;;;;5042077;27;92595;-76
2023/04/11 13:26:05;;;;;;;4.97;0.80;;;;;;;;;;5030092;27;91976;-77
2023/04/11 13:28:37;;;;;;;2.53;0.70;;;;;;;;;;5038097;27;92463;-75
2023/04/11 13:31:04;;;;;;;3.75;0.70;;;;;;;;;;5031465;27;92923;-76
2023/04/11 13:33:30;;;;;;;4.05;0.80;;;;;;;;;;5029788;27;94730;-75
2023/04/11 13:35:57;;;;;;;3.58;0.90;;;;;;;;;;5057758;27;95363;-77
2023/04/11 13:38:24;;;;;;;2.65;0.70;;;;;;;;;;5040836;27;95177;-76
2023/04/11 13:40:50;;;;;;;;;;;;;;;;;;5052955;27;92565;-77
2023/04/11 13:43:17;;;;;;;3.22;0.80;;;;;;;;;;5063280;27;116989;-76
2023/04/11 13:45:43;;;;;;;3.92;0.70;;;;;;;;;;5062026;27;93038;-76
2023/04/11 13:48:10;;;;;;;3.08;0.70;;;;;;;;;;5041293;27;92932;-76
2023/04/11 13:50:36;;;;;;;2.15;0.60;;;;;;;;;;5053634;27;92521;-76
2023/04/11 13:53:03;;;;;;;2.78;0.70;;;;;;;;;;5060452;27;92294;-76
2023/04/11 13:55:30;;;;;;;2.92;0.80;;;;;;;;;;5042964;27;93829;-76
2023/04/11 13:57:56;;;;;;;4.03;0.90;;;;;;;;;;5046539;27;95390;-77
2023/04/11 14:00:23;;;;;;;3.05;0.90;;;;;;;;;;5038242;27;92647;-77
2023/04/11 14:02:49;;;;;;;2.47;0.90;;;;;;;;;;5038949;27;94987;-77
2023/04/11 14:05:18;;;;;;;3.05;0.90;;;;;;;;;;5034647;27;92761;-76
2023/04/11 14:07:44;;;;;;;4.18;0.90;;;;;;;;;;5064728;27;93375;-76
2023/04/11 14:10:11;;;;;;;3.60;0.80;;;;;;;;;;5060873;27;93237;-76
2023/04/11 14:12:37;;;;;;;2.90;0.90;;;;;;;;;;5056848;27;92573;-76
2023/04/11 14:15:04;;;;;;;3.88;1.00;;;;;;;;;;5054634;27;92744;-76
2023/04/11 14:17:30;;;;;;;2.45;0.70;;;;;;;;;;5031366;27;92922;-77
2023/04/11 14:19:57;;;;;;;1.98;0.80;;;;;;;;;;5055462;27;92397;-75
2023/04/11 14:22:25;;;;;;;3.20;0.80;;;;;;;;;;5056928;27;94486;-76
2023/04/11 14:24:51;;;;;;;3.22;0.88;;;;;;;;;;5058839;27;93148;-77
2023/04/11 14:27:18;;;;;;;2.88;0.63;;;;;;;;;;5039929;27;92527;-77
2023/04/11 14:29:46;;;;;;;1.77;0.68;;;;;;;;;;5061746;27;93204;-77
2023/04/11 14:32:12;;;;;;;4.22;0.85;;;;;;;;;;5057916;27;92498;-77
2023/04/11 14:34:39;;;;;;;2.63;0.60;;;;;;;;;;5059043;27;92334;-76
2023/04/11 14:37:06;;;;;;;2.45;0.70;;;;;;;;;;5057570;27;92703;-76
2023/04/11 14:39:32;;;;;;;4.50;0.80;;;;;;;;;;5041902;27;91249;-76
2023/04/11 14:42:00;;;;;;;2.78;0.75;;;;;;;;;;5070165;27;92197;-77
2023/04/11 14:44:27;;;;;;;3.50;0.80;;;;;;;;;;5059033;27;97921;-77
2023/04/11 14:46:55;;;;;;;3.65;0.88;;;;;;;;;;5054972;27;94774;-77
2023/04/11 14:49:21;;;;;;;1.35;0.50;;;;;;;;;;5040814;27;95347;-77